createdAt,value
2019-03-29T00:00:12.167Z,99.99
2019-03-29T00:01:12.139Z,99.99
2019-03-29T00:02:12.152Z,99.99
2019-03-29T00:03:12.120Z,99.99
2019-03-29T00:04:12.117Z,99.99
2019-03-29T00:05:12.101Z,99.99
2019-03-29T00:06:13.235Z,99.99
2019-03-29T00:07:12.084Z,99.99
2019-03-29T00:08:12.096Z,99.99
2019-03-29T00:09:11.836Z,99.99
2019-03-29T00:10:12.074Z,99.99
2019-03-29T00:11:12.939Z,99.99
2019-03-29T00:12:12.051Z,99.99
2019-03-29T00:13:14.564Z,99.99
2019-03-29T00:14:12.045Z,99.99
2019-03-29T00:15:12.012Z,99.99
2019-03-29T00:16:12.020Z,99.99
2019-03-29T00:17:11.992Z,99.99
2019-03-29T00:18:12.675Z,99.99
2019-03-29T00:19:11.974Z,99.99
2019-03-29T00:20:11.968Z,99.99
2019-03-29T00:21:13.002Z,99.99
2019-03-29T00:22:11.962Z,99.99
2019-03-29T00:23:11.958Z,99.99
2019-03-29T00:24:11.940Z,99.99
2019-03-29T00:25:11.921Z,99.99
2019-03-29T00:26:11.912Z,99.99
2019-03-29T00:27:11.930Z,99.99
2019-03-29T00:28:13.331Z,99.99
2019-03-29T00:29:11.900Z,99.99
2019-03-29T00:30:11.874Z,99.99
2019-03-29T00:31:11.882Z,99.99
2019-03-29T00:32:11.859Z,99.99
2019-03-29T00:33:11.849Z,99.99
2019-03-29T00:34:11.853Z,99.99
2019-03-29T00:35:11.825Z,99.99
2019-03-29T00:36:11.821Z,99.99
2019-03-29T00:37:11.807Z,99.99
2019-03-29T00:38:11.816Z,99.99
2019-03-29T00:39:11.807Z,99.99
2019-03-29T00:40:11.782Z,99.99
2019-03-29T00:41:11.775Z,99.99
2019-03-29T00:42:11.761Z,99.99
2019-03-29T00:43:11.767Z,99.99
2019-03-29T00:44:11.747Z,99.99
2019-03-29T00:45:11.752Z,99.99
2019-03-29T00:46:11.997Z,99.99
2019-03-29T00:47:11.731Z,99.99
2019-03-29T00:48:11.702Z,99.99
2019-03-29T00:49:11.714Z,99.99
2019-03-29T00:50:11.692Z,99.99
2019-03-29T00:51:11.698Z,99.99
2019-03-29T00:52:11.682Z,99.99
2019-03-29T00:53:11.794Z,99.99
2019-03-29T00:54:11.650Z,99.99
2019-03-29T00:55:11.638Z,99.99
2019-03-29T00:56:12.923Z,99.99
2019-03-29T00:57:11.637Z,99.99
2019-03-29T00:58:11.703Z,99.99
2019-03-29T00:59:11.618Z,99.99
2019-03-29T01:00:11.595Z,99.99
2019-03-29T01:01:11.604Z,99.99
2019-03-29T01:02:11.573Z,99.99
2019-03-29T01:03:11.592Z,99.99
2019-03-29T01:04:11.558Z,99.99
2019-03-29T01:05:11.563Z,99.99
2019-03-29T01:06:12.298Z,99.99
2019-03-29T01:07:11.545Z,99.99
2019-03-29T01:08:12.886Z,99.99
2019-03-29T01:09:11.535Z,99.99
2019-03-29T01:10:11.500Z,99.99
2019-03-29T01:11:11.487Z,99.99
2019-03-29T01:12:11.492Z,99.99
2019-03-29T01:13:11.487Z,99.99
2019-03-29T01:14:11.567Z,99.99
2019-03-29T01:15:11.840Z,99.99
2019-03-29T01:16:11.455Z,99.99
2019-03-29T01:17:11.435Z,99.99
2019-03-29T01:18:11.917Z,99.99
2019-03-29T01:19:11.412Z,99.99
2019-03-29T01:20:11.424Z,99.99
2019-03-29T01:21:11.400Z,99.99
2019-03-29T01:22:11.403Z,99.99
2019-03-29T01:23:11.414Z,99.99
2019-03-29T01:24:11.382Z,99.99
2019-03-29T01:25:11.372Z,99.99
2019-03-29T01:26:11.349Z,99.99
2019-03-29T01:27:11.334Z,99.99
2019-03-29T01:28:12.045Z,99.99
2019-03-29T01:29:11.334Z,99.99
2019-03-29T01:30:11.339Z,99.99
2019-03-29T01:31:11.302Z,99.99
2019-03-29T01:32:11.303Z,99.99
2019-03-29T01:33:11.277Z,99.99
2019-03-29T01:34:11.291Z,99.99
2019-03-29T01:35:11.901Z,99.99
2019-03-29T01:36:11.264Z,99.99
2019-03-29T01:37:11.262Z,99.99
2019-03-29T01:38:24.611Z,99.99
2019-03-29T01:39:11.240Z,99.99
2019-03-29T01:40:11.751Z,99.99
2019-03-29T01:41:11.221Z,99.99
2019-03-29T01:42:11.200Z,99.99
2019-03-29T01:43:12.397Z,99.99
2019-03-29T01:44:11.187Z,99.99
2019-03-29T01:45:11.183Z,99.99
2019-03-29T01:46:11.304Z,99.99
2019-03-29T01:47:11.144Z,99.99
2019-03-29T01:48:11.150Z,99.99
2019-03-29T01:49:11.145Z,99.99
2019-03-29T01:50:11.116Z,99.99
2019-03-29T01:51:11.126Z,99.99
2019-03-29T01:52:11.100Z,99.99
2019-03-29T01:53:11.333Z,99.99
2019-03-29T01:54:11.081Z,99.99
2019-03-29T01:55:11.089Z,99.99
2019-03-29T01:56:11.077Z,99.99
2019-03-29T01:57:11.074Z,99.99
2019-03-29T01:58:11.043Z,99.99
2019-03-29T01:59:11.029Z,99.99
2019-03-29T02:00:11.901Z,99.99
2019-03-29T02:01:11.031Z,99.99
2019-03-29T02:02:11.028Z,99.99
2019-03-29T02:03:11.037Z,99.99
2019-03-29T02:04:10.998Z,99.99
2019-03-29T02:05:10.976Z,99.99
2019-03-29T02:06:10.984Z,99.99
2019-03-29T02:07:11.380Z,99.99
2019-03-29T02:08:10.966Z,99.99
2019-03-29T02:09:10.937Z,99.99
2019-03-29T02:10:10.947Z,99.99
2019-03-29T02:11:10.921Z,99.99
2019-03-29T02:12:10.915Z,99.99
2019-03-29T02:13:10.901Z,99.99
2019-03-29T02:14:10.912Z,99.99
2019-03-29T02:15:11.294Z,99.99
2019-03-29T02:16:10.884Z,99.99
2019-03-29T02:17:10.880Z,99.99
2019-03-29T02:18:10.870Z,99.99
2019-03-29T02:19:10.845Z,99.99
2019-03-29T02:20:10.868Z,99.99
2019-03-29T02:21:10.828Z,99.99
2019-03-29T02:22:11.512Z,99.99
2019-03-29T02:23:10.812Z,99.99
2019-03-29T02:24:10.815Z,99.99
2019-03-29T02:25:10.787Z,99.99
2019-03-29T02:26:11.540Z,99.99
2019-03-29T02:27:10.767Z,99.99
2019-03-29T02:28:10.763Z,99.99
2019-03-29T02:29:11.023Z,99.99
2019-03-29T02:30:10.811Z,99.99
2019-03-29T02:31:10.747Z,99.99
2019-03-29T02:32:10.728Z,99.99
2019-03-29T02:33:10.852Z,99.99
2019-03-29T02:34:10.714Z,99.99
2019-03-29T02:35:11.584Z,99.99
2019-03-29T02:36:10.689Z,99.99
2019-03-29T02:37:10.707Z,99.99
2019-03-29T02:38:10.678Z,99.99
2019-03-29T02:39:10.674Z,99.99
2019-03-29T02:40:10.650Z,99.99
2019-03-29T02:41:10.637Z,99.99
2019-03-29T02:42:10.649Z,99.99
2019-03-29T02:43:11.129Z,99.99
2019-03-29T02:44:10.616Z,99.99
2019-03-29T02:45:10.628Z,99.99
2019-03-29T02:46:10.613Z,99.99
2019-03-29T02:47:10.595Z,99.99
2019-03-29T02:48:10.572Z,99.99
2019-03-29T02:49:12.605Z,99.99
2019-03-29T02:50:11.591Z,99.99
2019-03-29T02:51:10.576Z,99.99
2019-03-29T02:52:10.541Z,99.99
2019-03-29T02:53:10.556Z,99.99
2019-03-29T02:54:10.523Z,99.99
2019-03-29T02:55:10.528Z,99.99
2019-03-29T02:56:10.492Z,99.99
2019-03-29T02:57:10.508Z,99.99
2019-03-29T02:58:10.476Z,99.99
2019-03-29T02:59:10.488Z,99.99
2019-03-29T03:00:10.485Z,99.99
2019-03-29T03:01:10.465Z,99.99
2019-03-29T03:02:10.436Z,99.99
2019-03-29T03:03:10.427Z,99.99
2019-03-29T03:04:10.432Z,99.99
2019-03-29T03:05:10.442Z,99.99
2019-03-29T03:06:10.399Z,99.99
2019-03-29T03:07:10.521Z,99.99
2019-03-29T03:08:10.389Z,99.99
2019-03-29T03:09:16.694Z,99.99
2019-03-29T03:10:10.368Z,99.99
2019-03-29T03:11:10.369Z,99.99
2019-03-29T03:12:10.358Z,99.99
2019-03-29T03:13:10.357Z,99.99
2019-03-29T03:14:10.328Z,99.99
2019-03-29T03:15:10.330Z,99.99
2019-03-29T03:16:10.321Z,99.99
2019-03-29T03:17:10.320Z,99.99
2019-03-29T03:18:10.287Z,99.99
2019-03-29T03:19:10.311Z,99.99
2019-03-29T03:20:14.574Z,99.99
2019-03-29T03:21:10.255Z,99.99
2019-03-29T03:22:10.242Z,99.99
2019-03-29T03:23:10.250Z,99.99
2019-03-29T03:24:10.228Z,99.99
2019-03-29T03:25:10.243Z,99.99
2019-03-29T03:26:10.205Z,99.99
2019-03-29T03:27:10.234Z,99.99
2019-03-29T03:28:10.186Z,99.99
2019-03-29T03:29:10.194Z,99.99
2019-03-29T03:30:10.187Z,99.99
2019-03-29T03:31:10.179Z,99.99
2019-03-29T03:32:10.157Z,99.99
2019-03-29T03:33:10.178Z,99.99
2019-03-29T03:34:10.155Z,99.99
2019-03-29T03:35:10.147Z,99.99
2019-03-29T03:36:10.110Z,99.99
2019-03-29T03:37:10.101Z,99.99
2019-03-29T03:38:10.093Z,99.99
2019-03-29T03:39:10.097Z,99.99
2019-03-29T03:40:10.087Z,99.99
2019-03-29T03:41:10.082Z,99.99
2019-03-29T03:42:10.054Z,99.99
2019-03-29T03:43:10.076Z,99.99
2019-03-29T03:44:10.032Z,99.99
2019-03-29T03:45:10.045Z,99.99
2019-03-29T03:46:10.023Z,99.99
2019-03-29T03:47:10.029Z,99.99
2019-03-29T03:48:10.006Z,99.99
2019-03-29T03:49:10.001Z,99.99
2019-03-29T03:50:09.974Z,99.99
2019-03-29T03:51:09.964Z,99.99
2019-03-29T03:52:09.973Z,99.99
2019-03-29T03:53:09.963Z,99.99
2019-03-29T03:54:09.952Z,99.99
2019-03-29T03:55:09.923Z,99.99
2019-03-29T03:56:09.928Z,99.99
2019-03-29T03:57:09.923Z,99.99
2019-03-29T03:58:09.897Z,99.99
2019-03-29T03:59:09.904Z,99.99
2019-03-29T04:00:09.872Z,99.99
2019-03-29T04:01:09.898Z,99.99
2019-03-29T04:02:09.862Z,99.99
2019-03-29T04:03:09.865Z,99.99
2019-03-29T04:04:09.859Z,99.99
2019-03-29T04:05:09.865Z,99.99
2019-03-29T04:06:09.824Z,99.99
2019-03-29T04:07:09.806Z,99.99
2019-03-29T04:08:09.816Z,99.99
2019-03-29T04:09:09.849Z,99.99
2019-03-29T04:10:09.794Z,99.99
2019-03-29T04:11:09.774Z,99.99
2019-03-29T04:12:09.776Z,99.99
2019-03-29T04:13:09.761Z,99.99
2019-03-29T04:14:09.772Z,99.99
2019-03-29T04:15:09.725Z,99.99
2019-03-29T04:16:09.744Z,99.89
2019-03-29T04:17:09.718Z,99.99
2019-03-29T04:18:09.772Z,99.99
2019-03-29T04:19:09.712Z,99.99
2019-03-29T04:20:09.685Z,99.99
2019-03-29T04:21:09.671Z,99.99
2019-03-29T04:22:09.686Z,99.89
2019-03-29T04:23:09.663Z,99.99
2019-03-29T04:24:09.716Z,99.99
2019-03-29T04:25:09.661Z,99.99
2019-03-29T04:26:09.643Z,99.99
2019-03-29T04:27:09.642Z,99.99
2019-03-29T04:28:09.619Z,99.99
2019-03-29T04:29:09.597Z,99.99
2019-03-29T04:30:09.693Z,99.99
2019-03-29T04:31:09.717Z,99.99
2019-03-29T04:32:09.589Z,99.99
2019-03-29T04:33:13.653Z,99.7
2019-03-29T04:34:09.617Z,99.99
2019-03-29T04:35:09.541Z,99.99
2019-03-29T04:36:09.710Z,99.99
2019-03-29T04:37:09.543Z,99.95
2019-03-29T04:38:09.668Z,99.8
2019-03-29T04:39:09.528Z,99.8
2019-03-29T04:40:11.320Z,99.85
2019-03-29T04:41:09.481Z,99.7
2019-03-29T04:42:09.571Z,99.85
2019-03-29T04:43:09.479Z,99.99
2019-03-29T04:44:09.454Z,99.99
2019-03-29T04:45:09.222Z,99.51
2019-03-29T04:46:09.506Z,99.89
2019-03-29T04:47:09.440Z,99.99
2019-03-29T04:48:09.655Z,99.7
2019-03-29T04:49:09.161Z,99.99
2019-03-29T04:50:09.412Z,99.99
2019-03-29T04:51:09.381Z,99.99
2019-03-29T04:52:09.378Z,99.99
2019-03-29T04:53:09.363Z,99.99
2019-03-29T04:54:09.374Z,99.99
2019-03-29T04:55:09.364Z,99.95
2019-03-29T04:56:09.343Z,99.99
2019-03-29T04:57:09.324Z,99.99
2019-03-29T04:58:09.317Z,99.95
2019-03-29T04:59:09.326Z,99.85
2019-03-29T05:00:09.303Z,99.99
2019-03-29T05:01:09.297Z,99.99
2019-03-29T05:02:09.296Z,99.99
2019-03-29T05:03:09.280Z,99.85
2019-03-29T05:04:09.283Z,99.56
2019-03-29T05:05:09.252Z,99.85
2019-03-29T05:06:09.263Z,99.95
2019-03-29T05:07:09.235Z,99.56
2019-03-29T05:08:09.230Z,99.75
2019-03-29T05:09:09.212Z,99.75
2019-03-29T05:10:22.962Z,99.46
2019-03-29T05:11:09.211Z,99.37
2019-03-29T05:12:09.189Z,99.56
2019-03-29T05:13:09.176Z,99.37
2019-03-29T05:14:09.190Z,99.37
2019-03-29T05:15:09.169Z,99.46
2019-03-29T05:16:09.162Z,99.37
2019-03-29T05:17:09.136Z,99.37
2019-03-29T05:18:09.148Z,99.56
2019-03-29T05:19:09.118Z,99.56
2019-03-29T05:20:09.129Z,98.99
2019-03-29T05:21:09.099Z,98.8
2019-03-29T05:22:09.118Z,99.27
2019-03-29T05:23:09.079Z,99.18
2019-03-29T05:24:09.075Z,99.18
2019-03-29T05:25:09.063Z,99.56
2019-03-29T05:26:09.071Z,98.9
2019-03-29T05:27:09.061Z,98.9
2019-03-29T05:28:09.040Z,98.99
2019-03-29T05:29:09.029Z,98.99
2019-03-29T05:30:09.015Z,98.99
2019-03-29T05:31:09.023Z,99.08
2019-03-29T05:32:09.001Z,98.8
2019-03-29T05:33:09.007Z,99.32
2019-03-29T05:34:08.996Z,99.23
2019-03-29T05:35:08.987Z,99.32
2019-03-29T05:36:08.960Z,98.85
2019-03-29T05:37:08.969Z,99.04
2019-03-29T05:38:08.940Z,99.42
2019-03-29T05:39:08.952Z,99.61
2019-03-29T05:40:08.928Z,99.04
2019-03-29T05:41:08.915Z,98.75
2019-03-29T05:42:08.925Z,98.56
2019-03-29T05:43:08.919Z,98.85
2019-03-29T05:44:08.891Z,98.75
2019-03-29T05:45:08.879Z,98.47
2019-03-29T05:46:08.869Z,98.37
2019-03-29T05:47:08.879Z,98.27
2019-03-29T05:48:08.854Z,98.27
2019-03-29T05:49:08.860Z,98.37
2019-03-29T05:50:08.830Z,98.47
2019-03-29T05:51:08.842Z,98.47
2019-03-29T05:52:08.819Z,98.47
2019-03-29T05:53:08.826Z,98.47
2019-03-29T05:54:08.797Z,98.66
2019-03-29T05:55:08.807Z,98.47
2019-03-29T05:56:08.794Z,98.66
2019-03-29T05:57:08.789Z,98.18
2019-03-29T05:58:08.762Z,98.27
2019-03-29T05:59:08.753Z,98.23
2019-03-29T06:00:08.763Z,98.71
2019-03-29T06:01:08.756Z,98.42
2019-03-29T06:02:08.747Z,98.23
2019-03-29T06:03:10.109Z,97.94
2019-03-29T06:04:08.725Z,98.23
2019-03-29T06:05:08.720Z,98.32
2019-03-29T06:06:08.696Z,98.52
2019-03-29T06:07:08.704Z,97.85
2019-03-29T06:08:08.673Z,98.03
2019-03-29T06:09:08.683Z,97.85
2019-03-29T06:10:08.660Z,98.13
2019-03-29T06:11:08.423Z,97.47
2019-03-29T06:12:08.657Z,97.56
2019-03-29T06:13:08.653Z,97.66
2019-03-29T06:14:08.622Z,97.52
2019-03-29T06:15:08.621Z,97.27
2019-03-29T06:16:08.826Z,97.23
2019-03-29T06:17:08.669Z,97.13
2019-03-29T06:18:08.605Z,97.23
2019-03-29T06:19:08.579Z,97.23
2019-03-29T06:20:08.587Z,96.56
2019-03-29T06:21:08.562Z,96.75
2019-03-29T06:22:08.575Z,96.94
2019-03-29T06:23:08.547Z,96.84
2019-03-29T06:24:08.560Z,96.94
2019-03-29T06:25:08.537Z,96.66
2019-03-29T06:26:08.543Z,96.46
2019-03-29T06:27:08.516Z,96.46
2019-03-29T06:28:08.512Z,96.51
2019-03-29T06:29:08.499Z,96.51
2019-03-29T06:30:08.509Z,96.51
2019-03-29T06:31:08.486Z,95.94
2019-03-29T06:32:08.486Z,96.22
2019-03-29T06:33:08.483Z,95.94
2019-03-29T06:34:08.476Z,95.75
2019-03-29T06:35:08.452Z,95.41
2019-03-29T06:36:08.464Z,95.22
2019-03-29T06:37:08.434Z,95.51
2019-03-29T06:38:08.446Z,95.22
2019-03-29T06:39:08.421Z,95.22
2019-03-29T06:40:08.433Z,94.74
2019-03-29T06:41:08.404Z,94.93
2019-03-29T06:42:08.444Z,94.84
2019-03-29T06:43:08.389Z,94.65
2019-03-29T06:44:08.384Z,94.46
2019-03-29T06:45:08.374Z,94.36
2019-03-29T06:46:08.386Z,94.65
2019-03-29T06:47:08.376Z,94.46
2019-03-29T06:48:08.356Z,94.93
2019-03-29T06:49:08.343Z,93.98
2019-03-29T06:50:08.337Z,94.31
2019-03-29T06:51:08.348Z,93.93
2019-03-29T06:52:08.328Z,93.84
2019-03-29T06:53:08.334Z,94.02
2019-03-29T06:54:08.329Z,93.64
2019-03-29T06:55:08.320Z,93.45
2019-03-29T06:56:08.299Z,93.64
2019-03-29T06:57:08.290Z,93.35
2019-03-29T06:58:08.600Z,93.21
2019-03-29T06:59:08.276Z,93.02
2019-03-29T07:00:08.271Z,92.92
2019-03-29T07:01:08.261Z,92.83
2019-03-29T07:02:08.276Z,92.73
2019-03-29T07:03:08.267Z,92.16
2019-03-29T07:04:08.247Z,91.77
2019-03-29T07:05:08.235Z,91.68
2019-03-29T07:06:08.228Z,91.97
2019-03-29T07:07:08.242Z,91.77
2019-03-29T07:08:08.224Z,92.25
2019-03-29T07:09:08.243Z,92.92
2019-03-29T07:10:08.213Z,92.97
2019-03-29T07:11:18.952Z,92.78
2019-03-29T07:12:08.190Z,92.92
2019-03-29T07:13:08.200Z,92.92
2019-03-29T07:14:08.173Z,92.92
2019-03-29T07:15:08.188Z,92.63
2019-03-29T07:16:08.174Z,92.83
2019-03-29T07:17:10.272Z,92.83
2019-03-29T07:18:08.148Z,92.83
2019-03-29T07:19:08.143Z,92.54
2019-03-29T07:20:08.151Z,92.06
2019-03-29T07:21:20.737Z,91.77
2019-03-29T07:22:08.124Z,92.25
2019-03-29T07:23:08.135Z,92.25
2019-03-29T07:24:08.115Z,92.16
2019-03-29T07:25:08.206Z,92.4
2019-03-29T07:26:08.145Z,92.58
2019-03-29T07:27:08.123Z,91.72
2019-03-29T07:28:08.085Z,91.92
2019-03-29T07:29:08.098Z,91.53
2019-03-29T07:30:08.071Z,91.82
2019-03-29T07:31:08.088Z,91.82
2019-03-29T07:32:08.076Z,91.92
2019-03-29T07:33:08.073Z,91.82
2019-03-29T07:34:08.051Z,92.01
2019-03-29T07:35:08.044Z,91.72
2019-03-29T07:36:08.052Z,91.72
2019-03-29T07:37:08.471Z,91.82
2019-03-29T07:38:08.041Z,91.53
2019-03-29T07:39:08.023Z,91.44
2019-03-29T07:40:08.026Z,91.72
2019-03-29T07:41:08.006Z,91.25
2019-03-29T07:42:08.017Z,91.15
2019-03-29T07:43:07.994Z,91.25
2019-03-29T07:44:08.009Z,91.05
2019-03-29T07:45:10.119Z,90.96
2019-03-29T07:46:07.993Z,90.48
2019-03-29T07:47:07.969Z,90.77
2019-03-29T07:48:08.035Z,91.39
2019-03-29T07:49:07.975Z,90.53
2019-03-29T07:50:07.955Z,90.05
2019-03-29T07:51:07.950Z,89.57
2019-03-29T07:52:07.953Z,90.62
2019-03-29T07:53:07.958Z,90.62
2019-03-29T07:54:08.016Z,90.14
2019-03-29T07:55:07.923Z,90.43
2019-03-29T07:56:07.935Z,90.43
2019-03-29T07:57:07.914Z,90.23
2019-03-29T07:58:07.676Z,89.66
2019-03-29T07:59:07.901Z,89.76
2019-03-29T08:00:07.914Z,89.47
2019-03-29T08:01:08.465Z,89.57
2019-03-29T08:02:07.912Z,89.71
2019-03-29T08:03:07.876Z,89.51
2019-03-29T08:04:07.883Z,89.23
2019-03-29T08:05:07.866Z,88.84
2019-03-29T08:06:07.877Z,89.13
2019-03-29T08:07:08.987Z,88.27
2019-03-29T08:08:07.852Z,87.93
2019-03-29T08:09:21.218Z,87.5
2019-03-29T08:10:07.840Z,87.88
2019-03-29T08:11:07.852Z,87.5
2019-03-29T08:12:07.837Z,87.31
2019-03-29T08:13:07.895Z,87.41
2019-03-29T08:14:07.838Z,87.79
2019-03-29T08:15:09.559Z,88.02
2019-03-29T08:16:09.164Z,88.12
2019-03-29T08:17:07.804Z,87.26
2019-03-29T08:18:07.819Z,87.55
2019-03-29T08:19:07.800Z,87.45
2019-03-29T08:20:43.759Z,87.55
2019-03-29T08:21:07.783Z,87.45
2019-03-29T08:22:07.797Z,87.74
2019-03-29T08:23:07.884Z,87.35
2019-03-29T08:24:07.773Z,87.35
2019-03-29T08:25:07.763Z,87.64
2019-03-29T08:26:07.778Z,87.26
2019-03-29T08:27:07.758Z,87.07
2019-03-29T08:28:07.920Z,87.55
2019-03-29T08:29:07.819Z,87.26
2019-03-29T08:30:07.758Z,87.35
2019-03-29T08:31:07.513Z,87.55
2019-03-29T08:32:07.758Z,86.92
2019-03-29T08:33:07.723Z,87.11
2019-03-29T08:34:07.736Z,86.72
2019-03-29T08:35:07.720Z,86.72
2019-03-29T08:36:07.719Z,86.25
2019-03-29T08:37:07.707Z,86.15
2019-03-29T08:38:08.795Z,86.25
2019-03-29T08:39:10.141Z,86.63
2019-03-29T08:40:07.711Z,86.72
2019-03-29T08:41:07.797Z,85.67
2019-03-29T08:42:07.702Z,86.44
2019-03-29T08:43:07.677Z,86.25
2019-03-29T08:44:07.689Z,86.63
2019-03-29T08:45:07.670Z,86.25
2019-03-29T08:46:07.684Z,86.72
2019-03-29T08:47:07.683Z,86.44
2019-03-29T08:48:09.318Z,86.44
2019-03-29T08:49:07.654Z,85.71
2019-03-29T08:50:07.665Z,86.1
2019-03-29T08:51:07.641Z,86.1
2019-03-29T08:52:07.654Z,86.1
2019-03-29T08:53:07.638Z,85.62
2019-03-29T08:54:07.651Z,84.66
2019-03-29T08:55:07.694Z,84.47
2019-03-29T08:56:07.625Z,84.18
2019-03-29T08:57:10.414Z,84.31
2019-03-29T08:58:07.615Z,83.93
2019-03-29T08:59:07.637Z,84.03
2019-03-29T09:00:07.615Z,84.22
2019-03-29T09:01:07.618Z,84.7
2019-03-29T09:02:07.598Z,83.84
2019-03-29T09:03:07.612Z,84.12
2019-03-29T09:04:08.511Z,83.84
2019-03-29T09:05:07.588Z,83.26
2019-03-29T09:06:07.597Z,83.2
2019-03-29T09:07:07.595Z,82.92
2019-03-29T09:08:07.602Z,83.4
2019-03-29T09:09:07.571Z,82.82
2019-03-29T09:10:07.589Z,82.97
2019-03-29T09:11:10.124Z,83.45
2019-03-29T09:12:17.020Z,83.26
2019-03-29T09:13:07.563Z,83.36
2019-03-29T09:14:07.560Z,83.36
2019-03-29T09:15:07.568Z,83.54
2019-03-29T09:16:07.547Z,83.54
2019-03-29T09:17:07.557Z,83.26
2019-03-29T09:18:07.536Z,83.16
2019-03-29T09:19:07.548Z,83.07
2019-03-29T09:20:10.382Z,82.87
2019-03-29T09:21:07.541Z,83.74
2019-03-29T09:22:07.527Z,83.98
2019-03-29T09:23:10.225Z,84.03
2019-03-29T09:24:20.703Z,83.98
2019-03-29T09:25:07.526Z,84.27
2019-03-29T09:26:07.502Z,84.18
2019-03-29T09:27:07.498Z,83.8
2019-03-29T09:28:07.509Z,83.8
2019-03-29T09:29:07.509Z,83.89
2019-03-29T09:30:07.715Z,84.08
2019-03-29T09:31:07.503Z,84.08
2019-03-29T09:32:07.485Z,84.18
2019-03-29T09:33:07.496Z,83.84
2019-03-29T09:34:07.470Z,84.03
2019-03-29T09:35:07.490Z,83.84
2019-03-29T09:36:07.750Z,83.7
2019-03-29T09:37:07.478Z,83.31
2019-03-29T09:38:07.455Z,83.41
2019-03-29T09:39:07.469Z,83.31
2019-03-29T09:40:07.475Z,83.7
2019-03-29T09:41:07.477Z,83.31
2019-03-29T09:42:09.507Z,83.8
2019-03-29T09:43:10.172Z,83.7
2019-03-29T09:44:07.526Z,83.51
2019-03-29T09:45:07.442Z,83.41
2019-03-29T09:46:07.443Z,84.18
2019-03-29T09:47:07.417Z,84.08
2019-03-29T09:48:07.432Z,84.08
2019-03-29T09:49:10.720Z,84.08
2019-03-29T09:50:10.261Z,84.56
2019-03-29T09:51:07.401Z,84.18
2019-03-29T09:52:07.413Z,84.37
2019-03-29T09:53:07.395Z,84.47
2019-03-29T09:54:07.408Z,84.75
2019-03-29T09:55:07.383Z,84.08
2019-03-29T09:56:07.397Z,84.66
2019-03-29T09:57:09.867Z,84.27
2019-03-29T09:58:07.370Z,84.37
2019-03-29T09:59:07.368Z,84.47
2019-03-29T10:00:23.420Z,83.31
2019-03-29T10:01:07.407Z,83.41
2019-03-29T10:02:07.411Z,83.8
2019-03-29T10:03:07.358Z,83.7
2019-03-29T10:04:07.357Z,83.98
2019-03-29T10:05:07.345Z,83.51
2019-03-29T10:06:07.360Z,82.93
2019-03-29T10:07:07.334Z,82.84
2019-03-29T10:08:07.351Z,83.8
2019-03-29T10:09:07.389Z,83.51
2019-03-29T10:10:07.324Z,83.31
2019-03-29T10:11:07.332Z,82.93
2019-03-29T10:12:07.083Z,83.12
2019-03-29T10:13:07.322Z,83.03
2019-03-29T10:14:07.301Z,83.22
2019-03-29T10:15:07.297Z,83.27
2019-03-29T10:16:07.315Z,83.56
2019-03-29T10:17:07.310Z,83.27
2019-03-29T10:18:07.345Z,83.65
2019-03-29T10:19:07.279Z,83.75
2019-03-29T10:20:07.293Z,83.37
2019-03-29T10:21:07.288Z,83.27
2019-03-29T10:22:07.272Z,83.27
2019-03-29T10:23:07.279Z,83.65
2019-03-29T10:24:07.261Z,83.47
2019-03-29T10:25:21.712Z,83.65
2019-03-29T10:26:07.251Z,83.75
2019-03-29T10:27:07.262Z,84.04
2019-03-29T10:28:07.255Z,84.23
2019-03-29T10:29:07.258Z,83.47
2019-03-29T10:30:07.231Z,83.65
2019-03-29T10:31:07.227Z,83.08
2019-03-29T10:32:11.542Z,83.47
2019-03-29T10:33:07.237Z,83.85
2019-03-29T10:34:07.243Z,83.37
2019-03-29T10:35:07.209Z,83.47
2019-03-29T10:36:07.227Z,83.27
2019-03-29T10:37:07.199Z,83.22
2019-03-29T10:38:07.213Z,83.03
2019-03-29T10:39:06.953Z,83.31
2019-03-29T10:40:07.213Z,83.03
2019-03-29T10:41:07.182Z,82.93
2019-03-29T10:42:07.200Z,82.26
2019-03-29T10:43:07.187Z,82.07
2019-03-29T10:44:07.182Z,82.59
2019-03-29T10:45:07.176Z,82.01
2019-03-29T10:46:07.201Z,81.53
2019-03-29T10:47:07.158Z,81.43
2019-03-29T10:48:07.174Z,80.86
2019-03-29T10:49:07.180Z,80.19
2019-03-29T10:50:07.164Z,80.86
2019-03-29T10:51:10.706Z,80.66
2019-03-29T10:52:07.155Z,80.32
2019-03-29T10:53:06.895Z,80.66
2019-03-29T10:54:07.150Z,80.28
2019-03-29T10:55:07.128Z,79.94
2019-03-29T10:56:07.144Z,79.75
2019-03-29T10:57:07.118Z,80.04
2019-03-29T10:58:09.603Z,80.04
2019-03-29T10:59:07.112Z,79.55
2019-03-29T11:00:07.113Z,79.46
2019-03-29T11:01:07.103Z,78.5
2019-03-29T11:02:07.121Z,78.4
2019-03-29T11:03:07.124Z,78.4
2019-03-29T11:04:07.100Z,78.4
2019-03-29T11:05:07.096Z,78.06
2019-03-29T11:06:06.849Z,77.96
2019-03-29T11:07:07.136Z,78.15
2019-03-29T11:08:07.085Z,78.34
2019-03-29T11:09:07.094Z,78.15
2019-03-29T11:10:07.076Z,77.67
2019-03-29T11:11:07.086Z,77.58
2019-03-29T11:12:07.069Z,76.75
2019-03-29T11:13:15.169Z,77.04
2019-03-29T11:14:07.077Z,76.94
2019-03-29T11:15:09.064Z,76.36
2019-03-29T11:16:07.056Z,75.21
2019-03-29T11:17:07.047Z,74.09
2019-03-29T11:18:07.070Z,73.61
2019-03-29T11:19:07.061Z,73.47
2019-03-29T11:20:07.046Z,73.67
2019-03-29T11:21:07.037Z,73.57
2019-03-29T11:22:07.035Z,73.57
2019-03-29T11:23:07.050Z,73.67
2019-03-29T11:24:09.076Z,73.86
2019-03-29T11:25:07.046Z,73.61
2019-03-29T11:26:07.024Z,73.42
2019-03-29T11:27:07.039Z,73.22
2019-03-29T11:28:07.017Z,72.55
2019-03-29T11:29:07.030Z,72.45
2019-03-29T11:30:07.016Z,72.07
2019-03-29T11:31:07.125Z,72.26
2019-03-29T11:32:07.017Z,72.65
2019-03-29T11:33:07.019Z,72.07
2019-03-29T11:34:06.998Z,71.55
2019-03-29T11:35:06.998Z,72.03
2019-03-29T11:36:07.012Z,71.55
2019-03-29T11:37:07.007Z,71.84
2019-03-29T11:38:07.080Z,71.94
2019-03-29T11:39:07.008Z,71.75
2019-03-29T11:40:06.989Z,71.94
2019-03-29T11:41:06.996Z,72.42
2019-03-29T11:42:06.974Z,71.94
2019-03-29T11:43:06.990Z,71.75
2019-03-29T11:44:06.969Z,71.94
2019-03-29T11:45:06.983Z,71.94
2019-03-29T11:46:06.966Z,71.91
2019-03-29T11:47:06.978Z,72.19
2019-03-29T11:48:11.630Z,72.29
2019-03-29T11:49:06.972Z,71.81
2019-03-29T11:50:06.950Z,72.38
2019-03-29T11:51:21.022Z,73.06
2019-03-29T11:52:06.946Z,72.48
2019-03-29T11:53:06.943Z,72.29
2019-03-29T11:54:06.938Z,72.58
2019-03-29T11:55:06.950Z,71.65
2019-03-29T11:56:06.934Z,70.84
2019-03-29T11:57:06.945Z,70.01
2019-03-29T11:58:06.926Z,69.44
2019-03-29T11:59:06.937Z,68.86
2019-03-29T12:00:06.946Z,68.38
2019-03-29T12:01:08.053Z,67.65
2019-03-29T12:02:06.909Z,67.35
2019-03-29T12:03:09.006Z,67
2019-03-29T12:04:06.909Z,66.24
2019-03-29T12:05:06.901Z,65.46
2019-03-29T12:06:06.918Z,65.17
2019-03-29T12:07:06.916Z,65.17
2019-03-29T12:08:06.897Z,64.69
2019-03-29T12:09:06.913Z,64.4
2019-03-29T12:10:06.888Z,63.92
2019-03-29T12:11:06.901Z,63.44
2019-03-29T12:12:06.889Z,63.15
2019-03-29T12:13:06.912Z,63.25
2019-03-29T12:14:07.554Z,63.54
2019-03-29T12:15:06.890Z,63.7
2019-03-29T12:16:06.869Z,63.41
2019-03-29T12:17:06.885Z,64.18
2019-03-29T12:18:06.871Z,64.18
2019-03-29T12:19:06.880Z,63.99
2019-03-29T12:20:06.946Z,64.08
2019-03-29T12:21:06.900Z,64.08
2019-03-29T12:22:06.858Z,64.08
2019-03-29T12:23:06.855Z,64.73
2019-03-29T12:24:06.865Z,64.56
2019-03-29T12:25:06.863Z,64.56
2019-03-29T12:26:06.860Z,64.28
2019-03-29T12:27:06.841Z,64.66
2019-03-29T12:28:06.863Z,64.53
2019-03-29T12:29:06.853Z,64.63
2019-03-29T12:30:06.830Z,64.82
2019-03-29T12:31:06.846Z,65.05
2019-03-29T12:32:06.827Z,64.37
2019-03-29T12:33:06.840Z,64.56
2019-03-29T12:34:06.819Z,64.95
2019-03-29T12:35:09.815Z,64.56
2019-03-29T12:36:06.825Z,64.37
2019-03-29T12:37:06.828Z,64.08
2019-03-29T12:38:06.809Z,64.47
2019-03-29T12:39:06.809Z,64.28
2019-03-29T12:40:06.817Z,64.47
2019-03-29T12:41:06.818Z,63.89
2019-03-29T12:42:06.650Z,63.79
2019-03-29T12:43:06.793Z,63.95
2019-03-29T12:44:06.805Z,64.82
2019-03-29T12:45:06.783Z,64.43
2019-03-29T12:46:06.810Z,64.82
2019-03-29T12:47:06.779Z,65.59
2019-03-29T12:48:06.795Z,65.59
2019-03-29T12:49:06.526Z,66.07
2019-03-29T12:50:06.792Z,66.04
2019-03-29T12:51:06.770Z,65.78
2019-03-29T12:52:06.764Z,66.17
2019-03-29T12:53:06.759Z,65.78